createdAt,value
2022-08-11T00:02:40.086Z,1.08
2022-08-11T00:05:10.580Z,1.35
2022-08-11T00:07:44.667Z,1.27
2022-08-11T00:10:14.397Z,1.27
2022-08-11T00:12:45.208Z,1.15
2022-08-11T00:15:14.343Z,1.15
2022-08-11T00:17:43.651Z,1.10
2022-08-11T00:20:16.619Z,1.05
2022-08-11T00:25:16.828Z,0.95
2022-08-11T00:27:45.591Z,1.30
2022-08-11T00:30:16.099Z,1.23
2022-08-11T00:32:46.004Z,1.10
2022-08-11T00:35:50.786Z,1.15
2022-08-11T00:38:07.319Z,1.27
2022-08-11T00:40:39.016Z,1.13
2022-08-11T00:43:20.456Z,1.40
2022-08-11T00:46:11.349Z,1.20
2022-08-11T00:48:49.772Z,1.08
2022-08-11T00:51:26.404Z,1.35
2022-08-11T00:55:09.632Z,1.38
2022-08-11T00:58:03.736Z,1.30
2022-08-11T01:03:19.941Z,1.00
2022-08-11T01:06:15.882Z,1.10
2022-08-11T01:09:22.799Z,1.20
2022-08-11T01:12:19.853Z,1.27
2022-08-11T01:15:25.733Z,1.30
2022-08-11T01:18:29.487Z,1.23
2022-08-11T01:21:34.689Z,1.23
2022-08-11T01:24:36.279Z,1.00
2022-08-11T01:27:37.328Z,1.00
2022-08-11T01:30:46.004Z,1.30
2022-08-11T01:34:02.479Z,1.17
2022-08-11T01:37:03.205Z,1.00
2022-08-11T01:39:58.455Z,1.10
2022-08-11T01:43:14.540Z,1.00
2022-08-11T01:45:48.377Z,1.20
2022-08-11T01:48:27.331Z,1.25
2022-08-11T01:51:04.315Z,1.10
2022-08-11T01:53:44.804Z,1.30
2022-08-11T01:56:32.451Z,1.33
2022-08-11T01:59:10.916Z,1.40
2022-08-11T02:01:51.215Z,1.50
2022-08-11T02:04:30.783Z,1.30
2022-08-11T02:07:08.821Z,1.40
2022-08-11T02:09:53.096Z,1.92
2022-08-11T02:12:32.069Z,2.00
2022-08-11T02:15:12.617Z,1.48
2022-08-11T02:17:51.595Z,1.30
2022-08-11T02:20:44.799Z,1.17
2022-08-11T02:24:06.766Z,1.58
2022-08-11T02:26:41.056Z,1.52
2022-08-11T02:29:19.759Z,2.40
2022-08-11T02:32:28.652Z,2.22
2022-08-11T02:35:06.216Z,1.40
2022-08-11T02:37:46.505Z,1.63
2022-08-11T02:40:23.168Z,1.38
2022-08-11T02:43:05.421Z,1.45
2022-08-11T02:45:47.259Z,1.20
2022-08-11T02:48:48.371Z,1.30
2022-08-11T02:51:26.572Z,1.10
2022-08-11T02:54:03.018Z,1.23
2022-08-11T02:56:44.418Z,1.48
2022-08-11T02:59:43.445Z,1.60
2022-08-11T03:02:21.321Z,1.33
2022-08-11T03:05:02.210Z,1.40
2022-08-11T03:07:37.161Z,1.25
2022-08-11T03:10:11.505Z,1.30
2022-08-11T03:13:05.494Z,2.20
2022-08-11T03:18:33.842Z,1.40
2022-08-11T03:21:08.782Z,1.40
2022-08-11T03:23:42.575Z,1.30
2022-08-11T03:26:23.793Z,1.65
2022-08-11T03:29:01.109Z,1.52
2022-08-11T03:31:35.723Z,1.60
2022-08-11T03:34:08.382Z,1.27
2022-08-11T03:37:16.059Z,1.42
2022-08-11T03:39:56.785Z,1.33
2022-08-11T03:42:33.216Z,1.73
2022-08-11T03:45:11.953Z,1.30
2022-08-11T03:48:09.141Z,1.50
2022-08-11T03:50:55.977Z,1.45
2022-08-11T03:53:45.185Z,1.42
2022-08-11T03:56:52.024Z,1.83
2022-08-11T04:00:02.040Z,2.10
2022-08-11T04:03:12.449Z,2.20
2022-08-11T04:06:19.412Z,1.77
2022-08-11T04:09:23.340Z,1.75
2022-08-11T04:12:36.014Z,1.65
2022-08-11T04:16:11.383Z,1.73
2022-08-11T04:18:57.125Z,1.52
2022-08-11T04:21:51.485Z,1.77
2022-08-11T04:24:40.997Z,1.90
2022-08-11T04:27:37.474Z,2.20
2022-08-11T04:30:13.163Z,2.20
2022-08-11T04:33:03.201Z,1.80
2022-08-11T04:35:50.712Z,1.58
2022-08-11T04:38:50.048Z,1.80
2022-08-11T04:42:15.172Z,1.95
2022-08-11T04:45:10.871Z,2.05
2022-08-11T04:48:28.775Z,1.95
2022-08-11T04:51:34.450Z,1.90
2022-08-11T04:54:28.762Z,1.80
2022-08-11T04:57:21.262Z,1.83
2022-08-11T05:00:23.146Z,2.08
2022-08-11T05:03:35.324Z,1.90
2022-08-11T05:06:30.338Z,1.83
2022-08-11T05:09:23.489Z,1.90
2022-08-11T05:12:14.071Z,2.10
2022-08-11T05:15:08.072Z,2.45
2022-08-11T05:18:01.165Z,1.92
2022-08-11T05:20:49.365Z,2.03
2022-08-11T05:23:40.211Z,1.80
2022-08-11T05:26:46.017Z,2.00
2022-08-11T05:29:55.080Z,2.08
2022-08-11T05:32:42.363Z,1.95
2022-08-11T05:36:00.919Z,1.75
2022-08-11T05:38:18.024Z,1.45
2022-08-11T05:41:12.719Z,1.90
2022-08-11T05:44:21.113Z,2.00
2022-08-11T05:47:08.094Z,1.70
2022-08-11T05:49:53.660Z,1.80
2022-08-11T05:52:42.124Z,1.83
2022-08-11T05:55:29.766Z,1.70
2022-08-11T05:58:03.137Z,1.50
2022-08-11T06:03:01.146Z,1.60
2022-08-11T06:05:37.181Z,1.70
2022-08-11T06:08:13.229Z,1.90
2022-08-11T06:10:42.321Z,4.82
2022-08-11T06:13:15.657Z,2.72
2022-08-11T06:15:48.187Z,4.05
2022-08-11T06:18:16.485Z,3.40
2022-08-11T06:20:48.840Z,2.75
2022-08-11T06:23:19.388Z,1.90
2022-08-11T06:25:48.005Z,2.10
2022-08-11T06:28:20.767Z,1.83
2022-08-11T06:30:49.784Z,2.00
2022-08-11T06:33:22.441Z,2.00
2022-08-11T06:36:00.885Z,2.17
2022-08-11T06:38:57.986Z,1.70
2022-08-11T06:41:31.581Z,2.22
2022-08-11T06:44:16.249Z,2.00
2022-08-11T06:46:47.530Z,2.10
2022-08-11T06:49:34.989Z,2.10
2022-08-11T06:52:05.128Z,2.25
2022-08-11T06:54:41.234Z,1.88
2022-08-11T06:57:31.388Z,1.88
2022-08-11T07:00:28.831Z,1.40
2022-08-11T07:03:01.768Z,2.05
2022-08-11T07:05:39.074Z,2.28
2022-08-11T07:08:52.702Z,1.98
2022-08-11T07:12:01.223Z,2.60
2022-08-11T07:14:49.278Z,1.48
2022-08-11T07:17:22.006Z,1.67
2022-08-11T07:20:24.237Z,2.13
2022-08-11T07:23:13.593Z,1.30
2022-08-11T07:26:01.002Z,1.67
2022-08-11T07:28:48.848Z,1.70
2022-08-11T07:31:23.388Z,1.75
2022-08-11T07:34:06.438Z,1.35
2022-08-11T07:36:42.684Z,2.50
2022-08-11T07:39:19.661Z,2.27
2022-08-11T07:41:48.370Z,1.52
2022-08-11T07:44:17.400Z,1.60
2022-08-11T07:47:04.994Z,1.65
2022-08-11T07:49:54.119Z,1.35
2022-08-11T07:52:32.711Z,1.90
2022-08-11T07:55:03.489Z,1.52
2022-08-11T07:58:14.993Z,1.65
2022-08-11T08:00:56.642Z,1.60
2022-08-11T08:03:54.488Z,1.90
2022-08-11T08:06:42.635Z,1.50
2022-08-11T08:09:28.898Z,1.45
2022-08-11T08:12:15.148Z,1.38
2022-08-11T08:15:01.506Z,1.60
2022-08-11T08:18:08.413Z,3.45
2022-08-11T08:20:38.873Z,1.67
2022-08-11T08:23:09.342Z,1.48
2022-08-11T08:25:40.332Z,1.83
2022-08-11T08:28:13.979Z,1.80
2022-08-11T08:30:51.177Z,1.70
2022-08-11T08:33:22.373Z,1.42
2022-08-11T08:36:11.245Z,1.48
2022-08-11T08:38:42.838Z,1.40
2022-08-11T08:41:13.272Z,1.70
2022-08-11T08:43:47.605Z,1.52
2022-08-11T08:46:20.184Z,1.50
2022-08-11T08:48:49.378Z,1.20
2022-08-11T08:52:01.926Z,1.85
2022-08-11T08:54:30.006Z,2.25
2022-08-11T08:56:58.404Z,1.83
2022-08-11T08:59:47.993Z,1.55
2022-08-11T09:02:17.163Z,1.83
2022-08-11T09:04:47.901Z,1.55
2022-08-11T09:07:18.256Z,1.58
2022-08-11T09:09:49.928Z,1.48
2022-08-11T09:12:38.071Z,1.60
2022-08-11T09:15:10.289Z,1.70
2022-08-11T09:17:42.036Z,2.10
2022-08-11T09:20:13.564Z,1.40
2022-08-11T09:26:09.491Z,1.70
2022-08-11T09:28:37.759Z,1.60
2022-08-11T09:31:07.959Z,1.45
2022-08-11T09:33:36.182Z,1.50
2022-08-11T09:36:25.935Z,1.52
2022-08-11T09:39:12.305Z,1.55
2022-08-11T09:41:55.701Z,1.52
2022-08-11T09:44:48.874Z,1.70
2022-08-11T09:47:24.347Z,1.65
2022-08-11T09:49:54.692Z,1.60
2022-08-11T09:52:24.730Z,2.15
2022-08-11T09:54:54.425Z,1.40
2022-08-11T09:57:41.938Z,2.20
2022-08-11T10:00:14.072Z,1.63
2022-08-11T10:02:44.952Z,2.10
2022-08-11T10:05:33.133Z,1.40
2022-08-11T10:08:01.634Z,1.65
2022-08-11T10:10:31.069Z,1.70
2022-08-11T10:13:04.230Z,1.50
2022-08-11T10:18:24.993Z,1.67
2022-08-11T10:20:56.544Z,1.60
2022-08-11T10:24:01.472Z,1.60
2022-08-11T10:26:49.780Z,1.52
2022-08-11T10:29:44.513Z,1.55
2022-08-11T10:32:52.263Z,1.40
2022-08-11T10:35:28.010Z,1.40
2022-08-11T10:38:07.827Z,1.38
2022-08-11T10:40:39.812Z,1.25
2022-08-11T10:43:13.203Z,1.10
2022-08-11T10:46:02.889Z,1.00
2022-08-11T10:48:33.063Z,1.02
2022-08-11T10:51:14.715Z,1.20
2022-08-11T10:54:02.672Z,1.15
2022-08-11T10:56:49.473Z,1.20
2022-08-11T10:59:18.045Z,1.20
2022-08-11T11:01:47.804Z,1.30
2022-08-11T11:04:17.755Z,1.20
2022-08-11T11:06:56.005Z,1.38
2022-08-11T11:09:32.334Z,1.50
2022-08-11T11:12:22.367Z,1.20
2022-08-11T11:15:19.127Z,1.20
2022-08-11T11:18:01.334Z,1.10
2022-08-11T11:20:37.624Z,1.33
2022-08-11T11:23:16.915Z,1.20
2022-08-11T11:26:10.169Z,1.30
2022-08-11T11:28:58.956Z,1.00
2022-08-11T11:31:37.131Z,1.00
2022-08-11T11:34:21.844Z,0.93
2022-08-11T11:36:51.424Z,1.10
2022-08-11T11:39:21.421Z,1.00
2022-08-11T11:41:50.476Z,1.30
2022-08-11T11:44:18.752Z,1.00
2022-08-11T11:46:46.784Z,1.30
2022-08-11T11:51:53.361Z,1.10
2022-08-11T11:54:23.673Z,1.10
2022-08-11T11:56:53.326Z,1.58
2022-08-11T11:59:40.171Z,1.10
2022-08-11T12:02:12.208Z,1.02
2022-08-11T12:04:45.080Z,1.30
2022-08-11T12:07:30.951Z,1.00
2022-08-11T12:09:59.926Z,1.33
2022-08-11T12:12:45.901Z,1.08
2022-08-11T12:15:14.193Z,0.90
2022-08-11T12:17:42.039Z,0.90
2022-08-11T12:20:31.708Z,1.10
2022-08-11T12:23:17.760Z,1.00
2022-08-11T12:26:25.729Z,1.10
2022-08-11T12:28:52.445Z,1.00
2022-08-11T12:31:25.818Z,1.00
2022-08-11T12:33:53.815Z,1.23
2022-08-11T12:36:23.573Z,1.00
2022-08-11T12:38:52.930Z,1.02
2022-08-11T12:41:40.495Z,0.93
2022-08-11T12:44:29.743Z,1.00
2022-08-11T12:47:00.634Z,1.20
2022-08-11T12:49:49.770Z,1.08
2022-08-11T12:52:24.604Z,0.90
2022-08-11T12:54:59.625Z,1.25
2022-08-11T12:57:50.589Z,1.33
2022-08-11T13:00:37.138Z,1.25
2022-08-11T13:03:25.711Z,1.00
2022-08-11T13:05:56.359Z,0.95
2022-08-11T13:08:27.765Z,1.00
2022-08-11T13:11:15.347Z,0.90
2022-08-11T13:13:55.353Z,1.20
2022-08-11T13:16:28.934Z,0.98
2022-08-11T13:18:58.391Z,1.10
2022-08-11T13:21:27.655Z,1.02
2022-08-11T13:24:00.588Z,0.80
2022-08-11T13:26:46.597Z,0.80
2022-08-11T13:29:18.454Z,0.90
2022-08-11T13:31:47.032Z,0.90
2022-08-11T13:34:16.604Z,1.10
2022-08-11T13:36:44.960Z,0.95
2022-08-11T13:39:15.066Z,1.40
2022-08-11T13:41:45.725Z,0.90
2022-08-11T13:44:21.596Z,0.80
2022-08-11T13:46:53.420Z,0.77
2022-08-11T13:49:22.696Z,1.10
2022-08-11T13:51:51.296Z,1.00
2022-08-11T13:54:22.894Z,0.82
2022-08-11T13:56:54.412Z,0.85
2022-08-11T13:59:29.596Z,1.52
2022-08-11T14:02:21.812Z,0.95
2022-08-11T14:04:55.017Z,0.77
2022-08-11T14:07:25.321Z,0.95
2022-08-11T14:09:59.229Z,1.13
2022-08-11T14:12:48.231Z,1.02
2022-08-11T14:15:20.725Z,0.95
2022-08-11T14:17:52.900Z,1.13
2022-08-11T14:20:38.739Z,1.30
2022-08-11T14:23:10.942Z,1.08
2022-08-11T14:26:02.836Z,1.15
2022-08-11T14:28:37.867Z,0.65
2022-08-11T14:31:09.250Z,0.70
2022-08-11T14:33:59.528Z,1.13
2022-08-11T14:36:29.654Z,0.70
2022-08-11T14:38:57.674Z,0.80
2022-08-11T14:42:10.066Z,0.88
2022-08-11T14:44:53.215Z,0.80
2022-08-11T14:47:23.977Z,0.88
2022-08-11T14:49:58.592Z,0.70
2022-08-11T14:52:42.042Z,0.90
2022-08-11T14:55:28.113Z,0.98
2022-08-11T14:57:57.863Z,0.77
2022-08-11T15:00:26.861Z,0.98
2022-08-11T15:03:10.180Z,0.73
2022-08-11T15:05:40.605Z,0.80
2022-08-11T15:08:10.133Z,1.02
2022-08-11T15:10:38.126Z,0.77
2022-08-11T15:13:07.771Z,0.90
2022-08-11T15:15:53.968Z,0.80
2022-08-11T15:18:24.075Z,0.90
2022-08-11T15:21:09.941Z,0.70
2022-08-11T15:23:57.852Z,0.88
2022-08-11T15:26:45.748Z,2.30
2022-08-11T15:29:34.206Z,1.05
2022-08-11T15:32:19.551Z,1.00
2022-08-11T15:35:08.027Z,1.00
2022-08-11T15:37:37.102Z,1.10
2022-08-11T15:40:31.421Z,0.80
2022-08-11T15:43:28.424Z,1.20
2022-08-11T15:46:02.198Z,1.17
2022-08-11T15:48:40.019Z,1.02
2022-08-11T15:51:11.261Z,1.20
2022-08-11T15:53:43.085Z,0.80
2022-08-11T15:56:12.401Z,0.90
2022-08-11T15:59:16.335Z,0.60
2022-08-11T16:02:10.163Z,1.02
2022-08-11T16:04:39.414Z,0.90
2022-08-11T16:07:11.617Z,0.77
2022-08-11T16:09:47.585Z,0.80
2022-08-11T16:12:24.229Z,0.80
2022-08-11T16:15:20.209Z,0.93
2022-08-11T16:17:53.769Z,0.77
2022-08-11T16:20:23.244Z,1.00
2022-08-11T16:22:55.289Z,0.70
2022-08-11T16:27:03.002Z,0.77
2022-08-11T16:28:23.361Z,0.80
2022-08-11T16:30:52.539Z,1.10
2022-08-11T16:33:49.916Z,0.80
2022-08-11T16:36:33.829Z,2.00
2022-08-11T16:39:04.184Z,0.90
2022-08-11T16:41:52.083Z,1.17
2022-08-11T16:44:40.081Z,1.90
2022-08-11T16:47:13.028Z,1.20
2022-08-11T16:49:52.370Z,1.50
2022-08-11T16:52:22.056Z,1.73
2022-08-11T16:54:50.300Z,1.23
2022-08-11T16:57:42.367Z,1.50
2022-08-11T17:00:12.987Z,1.08
2022-08-11T17:03:03.044Z,1.33
2022-08-11T17:05:54.671Z,1.20
2022-08-11T17:11:42.406Z,0.90
2022-08-11T17:14:14.674Z,1.00
2022-08-11T17:16:44.192Z,0.80
2022-08-11T17:19:14.875Z,1.00
2022-08-11T17:22:00.902Z,1.02
2022-08-11T17:24:29.438Z,0.70
2022-08-11T17:26:58.307Z,0.73
2022-08-11T17:29:29.697Z,0.95
2022-08-11T17:32:15.310Z,1.15
2022-08-11T17:35:11.026Z,0.98
2022-08-11T17:37:41.745Z,0.90
2022-08-11T17:40:13.225Z,1.30
2022-08-11T17:43:00.224Z,1.23
2022-08-11T17:45:46.099Z,1.02
2022-08-11T17:48:26.354Z,1.30
2022-08-11T17:50:56.236Z,0.80
2022-08-11T17:54:13.452Z,1.08
2022-08-11T17:56:52.462Z,1.13
2022-08-11T17:59:38.512Z,1.00
2022-08-11T18:02:22.143Z,1.15
2022-08-11T18:05:02.903Z,1.20
2022-08-11T18:07:48.251Z,1.30
2022-08-11T18:10:39.902Z,1.13
2022-08-11T18:13:25.644Z,1.10
2022-08-11T18:16:10.891Z,2.50
2022-08-11T18:18:56.240Z,1.40
2022-08-11T18:21:44.205Z,1.20
2022-08-11T18:24:32.403Z,1.00
2022-08-11T18:27:22.069Z,1.15
2022-08-11T18:30:10.170Z,1.30
2022-08-11T18:33:25.114Z,1.00
2022-08-11T18:36:08.997Z,1.30
2022-08-11T18:38:56.462Z,1.02
2022-08-11T18:41:43.674Z,1.15
2022-08-11T18:44:34.269Z,1.25
2022-08-11T18:47:21.161Z,1.10
2022-08-11T18:50:13.872Z,1.20
2022-08-11T18:53:06.915Z,1.85
2022-08-11T18:55:53.293Z,1.40
2022-08-11T18:58:45.711Z,1.50
2022-08-11T19:01:34.300Z,1.10
2022-08-11T19:04:21.471Z,2.28
2022-08-11T19:07:10.828Z,1.73
2022-08-11T19:10:00.793Z,1.50
2022-08-11T19:12:53.233Z,1.42
2022-08-11T19:15:39.265Z,1.60
2022-08-11T19:18:29.483Z,1.40
2022-08-11T19:21:16.294Z,1.75
2022-08-11T19:24:03.634Z,1.75
2022-08-11T19:26:50.965Z,1.60
2022-08-11T19:30:07.666Z,2.10
2022-08-11T19:32:46.873Z,1.80
2022-08-11T19:35:34.522Z,1.50
2022-08-11T19:38:21.387Z,1.55
2022-08-11T19:41:06.791Z,1.40
2022-08-11T19:43:53.098Z,1.90
2022-08-11T19:46:41.100Z,1.50
2022-08-11T19:49:29.312Z,1.27
2022-08-11T19:52:16.937Z,1.15
2022-08-11T19:55:03.153Z,1.80
2022-08-11T19:57:49.910Z,1.40
2022-08-11T20:00:38.254Z,1.70
2022-08-11T20:03:25.899Z,1.15
2022-08-11T20:06:13.618Z,1.65
2022-08-11T20:09:02.997Z,1.25
2022-08-11T20:11:50.944Z,1.20
2022-08-11T20:14:38.378Z,1.40
2022-08-11T20:17:26.279Z,1.48
2022-08-11T20:20:12.233Z,1.55
2022-08-11T20:22:58.841Z,2.00
2022-08-11T20:25:46.545Z,1.40
2022-08-11T20:28:35.562Z,1.65
2022-08-11T20:31:23.039Z,1.70
2022-08-11T20:34:09.031Z,1.63
2022-08-11T20:36:56.791Z,1.27
2022-08-11T20:39:44.194Z,1.30
2022-08-11T20:42:31.493Z,1.70
2022-08-11T20:45:23.509Z,1.30
2022-08-11T20:48:14.815Z,1.70
2022-08-11T20:51:06.057Z,1.48
2022-08-11T20:53:53.702Z,1.50
2022-08-11T20:56:42.712Z,2.85
2022-08-11T20:59:33.326Z,3.40
2022-08-11T21:02:36.061Z,2.22
2022-08-11T21:06:04.681Z,1.60
2022-08-11T21:08:27.849Z,1.50
2022-08-11T21:11:14.112Z,1.60
2022-08-11T21:14:13.977Z,1.70
2022-08-11T21:17:26.895Z,3.60
2022-08-11T21:20:18.365Z,2.38
2022-08-11T21:23:10.305Z,2.10
2022-08-11T21:26:07.812Z,1.60
2022-08-11T21:28:56.718Z,1.80
2022-08-11T21:31:44.127Z,1.63
2022-08-11T21:34:34.888Z,1.50
2022-08-11T21:37:21.216Z,1.50
2022-08-11T21:40:09.410Z,1.33
2022-08-11T21:42:59.410Z,1.58
2022-08-11T21:45:45.632Z,1.50
2022-08-11T21:48:31.569Z,1.45
2022-08-11T21:51:18.279Z,1.70
2022-08-11T21:54:05.045Z,1.70
2022-08-11T21:56:52.042Z,1.75
2022-08-11T21:59:42.016Z,1.42
2022-08-11T22:02:28.340Z,1.80
2022-08-11T22:05:14.200Z,1.63
2022-08-11T22:08:01.572Z,1.45
2022-08-11T22:10:46.820Z,1.50
2022-08-11T22:13:32.657Z,1.60
2022-08-11T22:16:19.090Z,1.65
2022-08-11T22:19:05.470Z,1.50
2022-08-11T22:22:01.604Z,1.77
2022-08-11T22:24:51.649Z,1.50
2022-08-11T22:27:36.872Z,1.60
2022-08-11T22:30:23.843Z,1.40
2022-08-11T22:33:09.597Z,1.80
2022-08-11T22:35:56.848Z,1.60
2022-08-11T22:38:44.389Z,1.42
2022-08-11T22:41:31.896Z,1.52
2022-08-11T22:44:18.258Z,1.60
2022-08-11T22:47:04.111Z,2.00
2022-08-11T22:49:57.754Z,1.88
2022-08-11T22:52:44.271Z,1.85
2022-08-11T22:55:29.747Z,1.30
2022-08-11T22:58:17.004Z,1.83
2022-08-11T23:01:02.428Z,1.65
2022-08-11T23:03:50.123Z,1.60
2022-08-11T23:06:37.218Z,1.77
2022-08-11T23:09:23.109Z,1.52
2022-08-11T23:12:10.210Z,1.75
2022-08-11T23:14:59.136Z,1.60
2022-08-11T23:17:44.951Z,1.55
2022-08-11T23:20:32.870Z,1.58
2022-08-11T23:23:25.705Z,1.58
2022-08-11T23:26:14.116Z,1.50
2022-08-11T23:29:05.020Z,1.60
2022-08-11T23:31:54.704Z,1.70
2022-08-11T23:35:37.268Z,2.00
2022-08-11T23:37:50.981Z,1.73
2022-08-11T23:40:36.037Z,1.83
2022-08-11T23:43:21.791Z,2.00
2022-08-11T23:46:07.127Z,1.70
2022-08-11T23:48:55.240Z,1.75
2022-08-11T23:51:41.645Z,1.77
2022-08-11T23:54:27.790Z,1.65
2022-08-11T23:57:12.985Z,2.05
2022-08-11T23:59:58.346Z,1.90
